Time;durP1;ratioP1;P1;durP2;ratioP2;P2;SDS_P1;SDS_P2;PMS_P1;PMS_P2;Temp;Humidity;BMP_temperature;BMP_pressure;BME280_temperature;BME280_humidity;BME280_pressure;Samples;Min_cycle;Max_cycle;Signal;HPM_P1;HPM_P2
2021/12/22 00:00:15;;;;;;;33.70;21.17;;;;;;;-0.18;82.93;100949.03;6155303;23;20015;-79
2021/12/22 00:02:46;;;;;;;32.40;22.48;;;;;;;-0.28;83.86;100944.00;6155643;23;20091;-79
2021/12/22 00:05:30;;;;;;;32.95;20.67;;;;;;;-0.22;83.35;100953.56;6157574;23;20013;-79
2021/12/22 00:07:55;;;;;;;31.50;21.20;;;;;;;-0.20;83.28;100964.91;6182407;23;20017;-78
2021/12/22 00:10:21;;;;;;;33.83;21.90;;;;;;;-0.18;82.67;100959.94;6182272;23;20024;-78
2021/12/22 00:12:48;;;;;;;32.60;21.95;;;;;;;-0.22;83.05;100959.03;6155654;23;20017;-78
2021/12/22 00:15:14;;;;;;;33.28;21.30;;;;;;;-0.24;82.92;100961.28;6182792;23;20496;-78
2021/12/22 00:17:39;;;;;;;34.17;21.75;;;;;;;-0.21;82.81;100955.16;6182170;23;20001;-78
2021/12/22 00:20:06;;;;;;;29.70;20.48;;;;;;;-0.23;83.55;100945.72;6182411;23;20021;-78
2021/12/22 00:22:32;;;;;;;32.97;21.48;;;;;;;-0.23;84.07;100959.34;6184017;23;20015;-79
2021/12/22 00:24:58;;;;;;;43.63;26.98;;;;;;;-0.27;83.87;100955.72;6184327;23;20013;-79
2021/12/22 00:27:23;;;;;;;48.60;30.02;;;;;;;-0.23;83.16;100951.19;6183845;23;20076;-79
2021/12/22 00:29:51;;;;;;;44.25;27.45;;;;;;;-0.23;82.80;100951.97;6157606;23;20043;-79
2021/12/22 00:32:17;;;;;;;38.85;24.80;;;;;;;-0.22;82.82;100952.78;6184238;23;20384;-79
2021/12/22 00:34:49;;;;;;;36.17;24.20;;;;;;;-0.26;82.87;100958.13;6184226;23;20028;-79
2021/12/22 00:37:17;;;;;;;33.58;21.92;;;;;;;-0.29;82.86;100953.34;6184525;23;20088;-79
2021/12/22 00:39:44;;;;;;;31.63;21.45;;;;;;;-0.28;83.04;100954.16;6184308;23;19996;-79
2021/12/22 00:42:11;;;;;;;35.95;23.02;;;;;;;-0.33;83.70;100960.63;6183757;23;20048;-79
2021/12/22 00:44:37;;;;;;;43.25;26.58;;;;;;;-0.33;83.57;100940.75;6183622;23;20021;-78
2021/12/22 00:47:03;;;;;;;41.72;26.40;;;;;;;-0.34;83.26;100956.31;6183437;23;20079;-79
2021/12/22 00:49:28;;;;;;;40.92;26.20;;;;;;;-0.35;83.61;100954.72;6184159;23;20086;-78
2021/12/22 00:51:54;;;;;;;38.92;24.15;;;;;;;-0.36;83.81;100953.09;6183385;23;20386;-78
2021/12/22 00:54:20;;;;;;;38.58;24.00;;;;;;;-0.37;84.73;100961.66;6158258;23;20023;-79
2021/12/22 00:56:45;;;;;;;36.97;23.80;;;;;;;-0.40;85.83;100957.66;6183972;23;20441;-79
2021/12/22 00:59:11;;;;;;;35.25;22.02;;;;;;;-0.36;85.23;100953.09;6183569;23;20060;-78
2021/12/22 01:01:36;;;;;;;30.45;20.58;;;;;;;-0.41;85.24;100949.84;6157078;23;20029;-78
2021/12/22 01:04:02;;;;;;;31.08;20.58;;;;;;;-0.38;85.27;100960.84;6183852;23;20020;-79
2021/12/22 01:06:27;;;;;;;29.77;20.23;;;;;;;-0.45;85.53;100952.44;6183714;23;20009;-78
2021/12/22 01:08:53;;;;;;;31.63;20.55;;;;;;;-0.43;84.88;100961.06;6183918;23;20016;-78
2021/12/22 01:11:19;;;;;;;33.67;21.05;;;;;;;-0.44;85.09;100958.69;6183675;23;20527;-78
2021/12/22 01:13:44;;;;;;;34.08;21.70;;;;;;;-0.52;85.35;100944.03;6183942;23;20100;-78
2021/12/22 01:16:10;;;;;;;33.97;22.52;;;;;;;-0.56;85.62;100959.47;6183935;23;20019;-79
2021/12/22 01:18:36;;;;;;;34.13;21.52;;;;;;;-0.54;85.09;100958.00;6183224;23;20067;-79
2021/12/22 01:23:59;;;;;;;32.50;20.90;;;;;;;-0.68;86.10;100962.19;6183873;23;20013;-79
2021/12/22 01:26:27;;;;;;;29.17;20.10;;;;;;;-0.74;86.64;100969.00;6183813;23;20327;-78
2021/12/22 01:28:53;;;;;;;30.60;20.20;;;;;;;-0.90;88.13;100982.47;6183042;23;20009;-78
2021/12/22 01:31:18;;;;;;;30.52;20.25;;;;;;;-0.88;87.38;100974.75;6156709;23;20013;-78
2021/12/22 01:33:44;;;;;;;27.67;19.05;;;;;;;-0.90;87.13;100982.47;6183315;23;20349;-78
2021/12/22 01:36:10;;;;;;;32.10;20.17;;;;;;;-0.98;88.61;100989.59;6183831;23;20020;-78
2021/12/22 01:38:35;;;;;;;28.80;19.95;;;;;;;-0.99;89.12;100985.28;6183603;23;20009;-78
2021/12/22 01:41:01;;;;;;;28.50;18.88;;;;;;;-0.99;87.65;100982.56;6157120;23;20009;-79
2021/12/22 01:43:26;;;;;;;25.60;18.45;;;;;;;-1.08;87.74;100983.78;6183684;23;20013;-78
2021/12/22 01:51:50;;;;;;;33.70;20.60;;;;;;;-1.18;88.65;100989.66;6183110;23;20009;-79
2021/12/22 01:54:19;;;;;;;40.28;26.08;;;;;;;-1.23;89.23;100981.69;6182854;23;20029;-78
2021/12/22 01:56:48;;;;;;;41.53;25.77;;;;;;;-1.29;89.43;100981.09;6183055;23;20887;-79
2021/12/22 01:59:14;;;;;;;36.58;24.40;;;;;;;-1.30;88.57;100984.97;6157238;23;20064;-79
2021/12/22 02:01:40;;;;;;;40.58;24.35;;;;;;;-1.31;88.16;100977.91;6182746;23;20001;-78
2021/12/22 02:04:10;;;;;;;44.80;27.88;;;;;;;-1.35;88.16;100971.56;6182816;23;20100;-79
2021/12/22 02:06:41;;;;;;;46.00;27.20;;;;;;;-1.48;88.55;100972.63;6157128;23;20067;-79
2021/12/22 02:09:08;;;;;;;38.35;25.60;;;;;;;-1.53;88.72;100964.66;6181835;23;20358;-79
2021/12/22 02:11:34;;;;;;;34.72;22.83;;;;;;;-1.57;88.38;100969.16;6157548;23;20020;-79
2021/12/22 02:14:03;;;;;;;45.33;29.50;;;;;;;-1.61;88.92;100969.03;6183377;23;20001;-78
2021/12/22 02:16:32;;;;;;;46.13;28.33;;;;;;;-1.57;89.07;100975.41;6157547;23;20035;-79
2021/12/22 02:19:00;;;;;;;27.45;18.67;;;;;;;-1.57;88.35;100974.63;6183002;23;20063;-79
2021/12/22 02:21:29;;;;;;;27.67;18.13;;;;;;;-1.61;88.15;100968.25;6183055;23;20576;-78
2021/12/22 02:23:55;;;;;;;24.23;15.52;;;;;;;-1.64;87.39;100964.28;6182250;23;20039;-78
2021/12/22 02:26:32;;;;;;;22.92;14.10;;;;;;;-1.69;87.82;100961.75;6157118;23;20381;-79
2021/12/22 02:29:03;;;;;;;19.25;12.90;;;;;;;-1.70;87.61;100967.53;6183095;23;20013;-78
2021/12/22 02:31:32;;;;;;;19.65;13.43;;;;;;;-1.70;87.82;100959.38;6183226;23;20081;-79
2021/12/22 02:33:58;;;;;;;21.42;13.38;;;;;;;-1.85;88.88;100976.28;6182568;23;20051;-78
2021/12/22 02:36:28;;;;;;;18.90;13.32;;;;;;;-1.95;88.92;100972.84;6183218;23;20027;-79
2021/12/22 02:38:59;;;;;;;21.85;13.50;;;;;;;-2.01;89.41;100970.63;6182978;23;20048;-79
2021/12/22 02:41:28;;;;;;;21.13;13.98;;;;;;;-1.98;89.68;100975.44;6183147;23;20013;-79
2021/12/22 02:43:55;;;;;;;22.52;15.82;;;;;;;-1.98;89.17;100973.47;6156390;23;20063;-78
2021/12/22 02:46:25;;;;;;;25.60;16.98;;;;;;;-2.00;89.37;100975.75;6183388;23;20017;-78
2021/12/22 02:48:51;;;;;;;25.23;16.08;;;;;;;-2.06;90.21;100968.88;6156484;23;20028;-79
2021/12/22 02:51:18;;;;;;;22.50;15.35;;;;;;;-2.12;90.75;100974.88;6182758;23;20017;-79
2021/12/22 02:58:58;;;;;;;22.45;14.80;;;;;;;-2.25;90.43;100976.69;6182983;23;20045;-79
2021/12/22 03:02:16;;;;;;;22.35;14.73;;;;;;;-2.25;91.42;100987.56;6159229;23;20035;-79
2021/12/22 03:04:29;;;;;;;22.02;15.15;;;;;;;-2.25;92.34;100982.13;6125688;23;20367;-79
2021/12/22 03:07:02;;;;;;;23.50;15.27;;;;;;;-2.27;92.48;100984.38;6129220;23;20009;-79
2021/12/22 03:09:32;;;;;;;22.30;14.53;;;;;;;-2.28;91.68;100987.41;6127553;23;20036;-79
2021/12/22 03:12:01;;;;;;;21.48;13.82;;;;;;;-2.32;91.92;100986.47;6152727;23;20018;-78
2021/12/22 03:14:27;;;;;;;20.73;13.68;;;;;;;-2.43;92.56;100986.88;6154078;23;20029;-79
2021/12/22 03:16:54;;;;;;;19.10;12.35;;;;;;;-2.43;92.10;100988.78;6127643;23;20092;-79
2021/12/22 03:19:22;;;;;;;22.98;13.82;;;;;;;-2.45;92.29;100972.00;6127907;23;20003;-79
2021/12/22 03:21:51;;;;;;;21.08;12.80;;;;;;;-2.44;91.92;100989.91;6153438;23;20016;-79
2021/12/22 03:24:19;;;;;;;19.55;12.85;;;;;;;-2.52;92.30;100988.03;6127539;23;20517;-79
2021/12/22 03:26:45;;;;;;;20.52;13.45;;;;;;;-2.51;94.05;101000.47;6153714;23;20021;-79
2021/12/22 03:29:15;;;;;;;21.77;13.55;;;;;;;-2.55;94.34;101002.25;6126678;23;20028;-79
2021/12/22 03:31:42;;;;;;;22.65;13.75;;;;;;;-2.51;94.49;101001.28;6153242;23;20044;-79
2021/12/22 03:34:09;;;;;;;19.77;12.90;;;;;;;-2.49;93.51;100993.59;6152969;23;20343;-79
2021/12/22 03:36:35;;;;;;;20.13;13.43;;;;;;;-2.51;92.65;101004.00;6126688;23;20470;-79
2021/12/22 03:39:03;;;;;;;24.25;14.32;;;;;;;-2.54;92.63;101007.34;6152678;23;20085;-79
2021/12/22 03:41:29;;;;;;;22.15;13.45;;;;;;;-2.56;93.79;100997.94;6152278;23;20012;-79
2021/12/22 03:43:55;;;;;;;20.08;13.68;;;;;;;-2.64;93.63;100996.06;6126357;23;20017;-79
2021/12/22 03:46:20;;;;;;;20.73;13.82;;;;;;;-2.64;92.83;101007.72;6152974;23;20421;-79
2021/12/22 03:48:46;;;;;;;21.25;13.65;;;;;;;-2.63;94.01;101011.25;6152170;23;20085;-80
2021/12/22 03:51:11;;;;;;;20.88;13.82;;;;;;;-2.66;94.55;101014.56;6125823;23;20013;-79
2021/12/22 03:53:37;;;;;;;22.88;14.25;;;;;;;-2.71;94.78;101014.78;6152570;23;20024;-80
2021/12/22 03:56:02;;;;;;;22.92;13.77;;;;;;;-2.78;94.71;101006.31;6154186;23;20020;-79
2021/12/22 03:58:28;;;;;;;19.80;13.10;;;;;;;-2.78;93.39;101017.97;6154705;23;20001;-79
2021/12/22 04:00:56;;;;;;;21.33;14.02;;;;;;;-2.82;92.84;101023.25;6155239;23;20064;-80
2021/12/22 04:03:24;;;;;;;21.27;12.93;;;;;;;-2.84;92.79;101017.38;6170422;23;20043;-80
2021/12/22 04:05:50;;;;;;;23.95;14.10;;;;;;;-2.90;92.66;101020.56;6184751;23;20473;-80
2021/12/22 04:08:18;;;;;;;22.05;14.07;;;;;;;-2.91;93.46;101025.19;6183814;23;20013;-80
2021/12/22 04:10:48;;;;;;;23.27;14.52;;;;;;;-2.99;95.92;101027.94;6184475;23;20013;-80
2021/12/22 04:13:13;;;;;;;21.50;14.48;;;;;;;-3.05;96.18;101018.34;6184307;23;20013;-80
2021/12/22 04:15:39;;;;;;;22.38;14.80;;;;;;;-3.03;95.76;101021.56;6184577;23;20505;-80
2021/12/22 04:18:05;;;;;;;22.35;13.73;;;;;;;-2.99;95.80;101031.44;6184057;23;20059;-80
2021/12/22 04:20:30;;;;;;;21.45;13.98;;;;;;;-2.94;95.10;101030.47;6184988;23;20464;-80
2021/12/22 04:22:56;;;;;;;22.55;13.93;;;;;;;-2.97;94.54;101026.50;6184036;23;20009;-80
2021/12/22 04:25:22;;;;;;;21.52;13.30;;;;;;;-3.04;94.94;101028.91;6184373;23;20017;-80
2021/12/22 04:27:55;;;;;;;21.33;13.32;;;;;;;-3.08;95.48;101035.28;6157648;23;20016;-80
2021/12/22 04:30:22;;;;;;;19.23;12.90;;;;;;;-3.09;95.24;101033.69;6184525;23;20013;-80
2021/12/22 04:32:47;;;;;;;20.85;13.20;;;;;;;-3.14;95.09;101029.22;6184099;23;20441;-80
2021/12/22 04:35:13;;;;;;;19.95;12.60;;;;;;;-3.17;95.19;101035.31;6158035;23;20016;-80
2021/12/22 04:37:38;;;;;;;19.90;13.43;;;;;;;-3.18;95.19;101047.25;6184061;23;20019;-80
2021/12/22 04:40:04;;;;;;;20.98;13.93;;;;;;;-3.23;95.71;101044.72;6183844;23;20008;-80
2021/12/22 04:42:30;;;;;;;20.27;14.30;;;;;;;-3.22;96.53;101054.44;6184158;23;20009;-80
2021/12/22 04:44:57;;;;;;;20.40;13.75;;;;;;;-3.20;96.75;101044.09;6184457;23;20024;-80
2021/12/22 04:47:23;;;;;;;21.88;13.75;;;;;;;-3.20;95.91;101048.72;6183994;23;20036;-80
2021/12/22 04:49:48;;;;;;;21.90;13.52;;;;;;;-3.17;96.10;101048.06;6184066;23;20013;-80
2021/12/22 04:52:17;;;;;;;21.10;14.02;;;;;;;-3.24;96.33;101043.13;6183161;23;20013;-80
2021/12/22 04:55:02;;;;;;;22.00;13.55;;;;;;;-3.28;96.54;101047.59;6184263;23;20036;-80
2021/12/22 04:57:28;;;;;;;21.55;13.63;;;;;;;-3.31;96.29;101046.31;6184088;23;20037;-80
2021/12/22 04:59:53;;;;;;;23.60;14.70;;;;;;;-3.26;96.02;101061.63;6157278;23;20123;-80
2021/12/22 05:02:19;;;;;;;24.65;14.77;;;;;;;-3.30;95.26;101044.41;6183105;23;20009;-80
2021/12/22 05:04:44;;;;;;;20.80;13.25;;;;;;;-3.29;95.74;101062.28;6184032;23;20028;-80
2021/12/22 05:07:10;;;;;;;23.52;13.45;;;;;;;-3.27;96.26;101067.41;6183679;23;20009;-80
2021/12/22 05:09:36;;;;;;;22.02;13.88;;;;;;;-3.23;95.66;101068.34;6184048;23;20040;-80
2021/12/22 05:12:01;;;;;;;22.30;12.75;;;;;;;-3.21;95.09;101075.06;6183869;23;20389;-80
2021/12/22 05:14:27;;;;;;;18.55;12.82;;;;;;;-3.25;94.64;101062.44;6183669;23;20059;-80
2021/12/22 05:16:58;;;;;;;22.05;13.65;;;;;;;-3.18;94.60;101068.19;6184188;23;20013;-80
2021/12/22 05:19:24;;;;;;;21.70;13.40;;;;;;;-3.18;94.43;101074.41;6158578;23;20013;-80
2021/12/22 05:21:50;;;;;;;21.23;12.65;;;;;;;-3.22;94.25;101073.44;6183892;23;20036;-80
2021/12/22 05:24:15;;;;;;;18.98;12.65;;;;;;;-3.26;95.52;101077.13;6183308;23;20031;-81
2021/12/22 05:26:41;;;;;;;21.13;13.70;;;;;;;-3.27;94.60;101075.53;6184032;23;20017;-86
2021/12/22 05:29:06;;;;;;;20.65;12.88;;;;;;;-3.26;94.98;101082.53;6182118;23;20020;-80
2021/12/22 05:31:32;;;;;;;22.20;13.13;;;;;;;-3.22;94.63;101078.06;6157526;23;20013;-81
2021/12/22 05:33:58;;;;;;;19.52;12.93;;;;;;;-3.24;94.97;101086.56;6183457;23;20017;-81
2021/12/22 05:36:23;;;;;;;21.85;13.25;;;;;;;-3.28;95.06;101080.16;6182239;23;20009;-81
2021/12/22 05:38:49;;;;;;;20.92;13.57;;;;;;;-3.30;95.27;101080.47;6183064;23;20453;-80
2021/12/22 05:41:14;;;;;;;21.45;13.60;;;;;;;-3.27;95.13;101091.81;6156961;23;20413;-81
2021/12/22 05:43:40;;;;;;;21.55;13.85;;;;;;;-3.25;95.20;101092.28;6183384;23;20465;-80
2021/12/22 05:46:05;;;;;;;21.88;13.60;;;;;;;-3.26;95.14;101085.25;6183324;23;20010;-81
2021/12/22 05:48:31;;;;;;;22.17;14.00;;;;;;;-3.33;95.91;101072.19;6183037;23;20048;-80
2021/12/22 05:50:58;;;;;;;23.85;14.73;;;;;;;-3.27;95.93;101081.75;6183350;23;20028;-81
2021/12/22 05:53:25;;;;;;;24.08;14.63;;;;;;;-3.25;95.65;101090.38;6182869;23;20441;-80
2021/12/22 05:55:51;;;;;;;26.15;15.68;;;;;;;-3.23;95.24;101088.13;6183818;23;20009;-81
2021/12/22 05:58:16;;;;;;;20.85;14.00;;;;;;;-3.19;95.16;101088.31;6183154;23;20008;-81
2021/12/22 06:00:42;;;;;;;24.15;13.95;;;;;;;-3.21;95.25;101096.75;6183324;23;20055;-81
2021/12/22 06:03:10;;;;;;;18.95;13.50;;;;;;;-3.18;95.18;101090.69;6182526;23;20024;-80
2021/12/22 06:05:36;;;;;;;20.08;13.88;;;;;;;-3.18;95.17;101096.13;6183245;23;20087;-82
2021/12/22 06:08:02;;;;;;;26.55;15.48;;;;;;;-3.19;95.53;101093.75;6183083;23;20021;-82
2021/12/22 06:10:28;;;;;;;25.35;16.17;;;;;;;-3.17;95.71;101096.91;6183158;23;20433;-81
2021/12/22 06:12:55;;;;;;;26.80;16.90;;;;;;;-3.13;95.76;101087.81;6181075;23;20009;-81
2021/12/22 06:15:21;;;;;;;27.20;17.52;;;;;;;-3.01;95.45;101106.97;6182899;23;20005;-81
2021/12/22 06:17:53;;;;;;;29.88;17.45;;;;;;;-3.02;95.34;101099.94;6183167;23;20072;-81
2021/12/22 06:20:18;;;;;;;24.35;15.90;;;;;;;-3.00;95.40;101111.28;6182909;23;20013;-81
2021/12/22 06:22:44;;;;;;;25.10;16.85;;;;;;;-2.96;95.00;101106.03;6156150;23;20068;-81
2021/12/22 06:25:09;;;;;;;25.35;17.15;;;;;;;-2.93;94.77;101110.78;6182718;23;20001;-81
2021/12/22 06:27:35;;;;;;;26.75;16.33;;;;;;;-2.85;95.31;101123.56;6183230;23;20437;-80
2021/12/22 06:30:00;;;;;;;26.42;16.58;;;;;;;-2.81;95.58;101124.53;6132440;23;20024;-80
2021/12/22 06:32:26;;;;;;;26.27;15.48;;;;;;;-2.78;95.51;101125.78;6183020;23;20017;-80
2021/12/22 06:34:51;;;;;;;25.75;15.80;;;;;;;-2.76;95.42;101129.00;6182425;23;20024;-80
2021/12/22 06:37:17;;;;;;;24.77;15.35;;;;;;;-2.78;95.48;101126.59;6182448;23;20009;-80
2021/12/22 06:39:42;;;;;;;24.02;16.20;;;;;;;-2.71;95.51;101123.41;6182735;23;20009;-81
2021/12/22 06:42:08;;;;;;;23.23;15.73;;;;;;;-2.65;95.03;101127.53;6181650;23;20006;-80
2021/12/22 06:44:34;;;;;;;25.70;15.05;;;;;;;-2.58;94.99;101133.28;6154133;23;20045;-83
2021/12/22 06:46:59;;;;;;;23.67;15.68;;;;;;;-2.66;94.67;101120.50;6153958;23;20008;-81
2021/12/22 06:49:25;;;;;;;23.33;14.73;;;;;;;-2.55;95.39;101130.72;6180075;23;20016;-81
2021/12/22 06:51:51;;;;;;;24.85;15.48;;;;;;;-2.46;94.93;101139.63;6180620;23;20369;-82
2021/12/22 06:54:16;;;;;;;22.85;15.40;;;;;;;-2.40;94.76;101137.56;6153841;23;20079;-82
2021/12/22 06:56:42;;;;;;;25.08;17.08;;;;;;;-2.39;94.29;101139.16;6182198;23;20005;-80
2021/12/22 06:59:08;;;;;;;33.30;21.42;;;;;;;-2.36;94.37;101139.31;6181365;23;20453;-81
2021/12/22 07:01:35;;;;;;;44.78;27.25;;;;;;;-2.41;94.16;101135.97;6182208;23;20008;-80
2021/12/22 07:04:00;;;;;;;45.53;25.13;;;;;;;-2.32;94.14;101144.91;6182001;23;20052;-81
2021/12/22 07:06:26;;;;;;;38.30;21.73;;;;;;;-2.32;94.12;101147.63;6181015;23;20044;-80
2021/12/22 07:08:52;;;;;;;29.98;17.85;;;;;;;-2.33;94.57;101146.00;6155534;23;20354;-80
2021/12/22 07:11:18;;;;;;;23.17;14.95;;;;;;;-2.37;94.63;101147.78;6182118;23;20009;-80
2021/12/22 07:13:44;;;;;;;19.48;13.77;;;;;;;-2.34;94.15;101158.00;6131701;23;20068;-81
2021/12/22 07:16:09;;;;;;;21.27;13.48;;;;;;;-2.39;94.04;101166.34;6156224;23;20413;-81
2021/12/22 07:18:35;;;;;;;21.75;14.82;;;;;;;-2.37;93.87;101169.50;6182465;23;20013;-81
2021/12/22 07:21:01;;;;;;;22.55;14.80;;;;;;;-2.46;93.63;101171.44;6178913;23;20064;-80
2021/12/22 07:23:27;;;;;;;23.33;15.30;;;;;;;-2.41;93.65;101169.38;6180156;23;20029;-81
2021/12/22 07:25:53;;;;;;;24.75;16.23;;;;;;;-2.44;93.71;101169.22;6180416;23;20092;-80
2021/12/22 07:28:18;;;;;;;25.77;17.33;;;;;;;-2.46;93.98;101166.00;6179943;23;20429;-81
2021/12/22 07:30:44;;;;;;;29.25;18.25;;;;;;;-2.42;94.19;101178.63;6180194;23;20143;-81
2021/12/22 07:33:11;;;;;;;25.95;16.85;;;;;;;-2.42;93.78;101177.81;6178249;23;20071;-81
2021/12/22 07:35:47;;;;;;;28.17;18.10;;;;;;;-2.44;93.83;101178.16;6154447;23;20117;-81
2021/12/22 07:38:30;;;;;;;25.15;16.15;;;;;;;-2.42;94.11;101180.53;6153425;23;20021;-81
2021/12/22 07:40:59;;;;;;;27.17;17.17;;;;;;;-2.44;94.25;101177.38;6180240;23;20473;-80
2021/12/22 07:43:25;;;;;;;24.90;15.68;;;;;;;-2.35;94.26;101183.59;6154271;23;20600;-80
2021/12/22 07:45:51;;;;;;;23.98;16.40;;;;;;;-2.31;94.19;101181.81;6179945;23;20005;-80
2021/12/22 07:48:17;;;;;;;22.90;15.85;;;;;;;-2.31;94.18;101183.75;6180076;23;20152;-80
2021/12/22 07:50:42;;;;;;;23.65;15.25;;;;;;;-2.31;94.24;101179.09;6153472;23;20023;-81
2021/12/22 07:53:08;;;;;;;24.63;15.00;;;;;;;-2.23;94.58;101186.44;6180182;23;20016;-81
2021/12/22 07:55:35;;;;;;;22.42;14.82;;;;;;;-2.20;94.10;101191.22;6180082;23;20020;-80
2021/12/22 07:58:00;;;;;;;25.30;15.40;;;;;;;-2.13;93.78;101185.28;6154057;23;20055;-80
2021/12/22 08:00:27;;;;;;;26.65;15.98;;;;;;;-2.19;93.57;101195.56;6153687;23;20012;-81
2021/12/22 08:02:53;;;;;;;24.95;16.20;;;;;;;-2.25;93.85;101188.69;6179582;23;20017;-80
2021/12/22 08:05:18;;;;;;;31.38;19.30;;;;;;;-2.13;93.82;101194.25;6153757;23;20020;-81
2021/12/22 08:07:44;;;;;;;38.85;22.08;;;;;;;-2.05;93.86;101187.97;6153327;23;20013;-80
2021/12/22 08:10:09;;;;;;;39.58;20.85;;;;;;;-1.93;93.67;101190.81;6153400;23;20017;-80
2021/12/22 08:12:35;;;;;;;31.13;18.75;;;;;;;-1.84;94.06;101196.25;6180182;23;20036;-80
2021/12/22 08:15:02;;;;;;;29.05;17.90;;;;;;;-1.84;93.70;101187.28;6128392;23;20013;-80
2021/12/22 08:17:29;;;;;;;26.05;17.88;;;;;;;-1.79;93.66;101206.16;6180725;23;20021;-80
2021/12/22 08:19:55;;;;;;;28.13;18.48;;;;;;;-1.72;93.22;101201.78;6180302;23;20031;-80
2021/12/22 08:22:20;;;;;;;25.20;16.70;;;;;;;-1.76;93.04;101209.00;6179525;23;20020;-80
2021/12/22 08:24:46;;;;;;;23.88;16.00;;;;;;;-1.77;92.83;101207.41;6179706;23;20473;-80
2021/12/22 08:27:12;;;;;;;23.45;15.90;;;;;;;-1.72;92.77;101209.16;6179929;23;20016;-80
2021/12/22 08:29:42;;;;;;;23.98;15.52;;;;;;;-1.75;92.64;101216.06;6179900;23;20008;-81
2021/12/22 08:32:09;;;;;;;23.65;16.02;;;;;;;-1.73;92.96;101211.06;6180293;23;20025;-80
2021/12/22 08:34:38;;;;;;;28.75;17.05;;;;;;;-1.69;93.07;101219.38;6180538;23;20001;-80
2021/12/22 08:39:49;;;;;;;26.80;18.27;;;;;;;-1.68;94.07;101227.22;6179698;23;20013;-80
2021/12/22 08:42:15;;;;;;;25.27;17.23;;;;;;;-1.64;93.96;101224.63;6154828;23;20016;-80
2021/12/22 08:44:40;;;;;;;23.58;16.88;;;;;;;-1.61;93.94;101224.78;6181649;23;20017;-80
2021/12/22 08:47:06;;;;;;;22.98;15.63;;;;;;;-1.53;94.29;101229.38;6181909;23;20302;-80
2021/12/22 08:49:33;;;;;;;21.17;15.35;;;;;;;-1.52;94.15;101224.75;6155039;23;20017;-80
2021/12/22 08:51:58;;;;;;;23.70;14.82;;;;;;;-1.37;93.59;101239.75;6181274;23;20017;-80
2021/12/22 08:54:24;;;;;;;21.45;14.23;;;;;;;-1.36;93.58;101236.69;6155455;23;20008;-80
2021/12/22 08:56:49;;;;;;;19.08;13.35;;;;;;;-1.24;93.53;101238.69;6181030;23;20020;-80
2021/12/22 08:59:16;;;;;;;28.38;18.90;;;;;;;-1.20;93.24;101245.88;6181696;23;20013;-80
2021/12/22 09:01:42;;;;;;;43.80;27.58;;;;;;;-1.17;93.31;101245.22;6181745;23;20027;-80
2021/12/22 09:04:07;;;;;;;30.83;20.77;;;;;;;-1.13;93.07;101234.50;6181942;23;20323;-80
2021/12/22 09:06:33;;;;;;;25.48;16.85;;;;;;;-1.01;93.00;101250.91;6181763;23;20016;-80
2021/12/22 09:08:58;;;;;;;22.85;15.55;;;;;;;-0.93;92.88;101252.00;6181979;23;20437;-80
2021/12/22 09:11:25;;;;;;;21.63;15.68;;;;;;;-0.93;92.62;101250.84;6181744;23;20133;-80
2021/12/22 09:13:51;;;;;;;25.58;17.45;;;;;;;-0.83;92.10;101259.75;6129973;23;20266;-80
2021/12/22 09:16:16;;;;;;;28.33;19.10;;;;;;;-0.79;91.10;101256.06;6155782;23;20539;-80
2021/12/22 09:18:42;;;;;;;26.17;17.27;;;;;;;-0.74;91.01;101266.75;6181762;23;20048;-80
2021/12/22 09:21:09;;;;;;;27.45;17.75;;;;;;;-0.64;90.80;101257.38;6154742;23;20397;-80
2021/12/22 09:23:35;;;;;;;29.55;18.48;;;;;;;-0.61;90.70;101254.81;6181011;23;20512;-80
2021/12/22 09:26:01;;;;;;;29.88;19.70;;;;;;;-0.60;88.88;101258.31;6181365;23;20020;-80
2021/12/22 09:28:26;;;;;;;32.38;20.30;;;;;;;-0.56;89.19;101260.03;6154795;23;20488;-80
2021/12/22 09:30:52;;;;;;;27.10;19.48;;;;;;;-0.51;88.67;101245.41;6155061;23;20190;-80
2021/12/22 09:33:18;;;;;;;30.95;20.40;;;;;;;-0.50;88.44;101253.28;6181069;23;20035;-80
2021/12/22 09:35:47;;;;;;;31.60;21.30;;;;;;;-0.38;87.15;101249.81;6180767;23;20038;-80
2021/12/22 09:38:13;;;;;;;34.78;21.63;;;;;;;-0.33;86.16;101252.34;6181079;23;20391;-79
2021/12/22 09:40:39;;;;;;;32.65;21.05;;;;;;;-0.37;84.97;101256.06;6155386;23;20009;-79
2021/12/22 09:43:05;;;;;;;36.03;22.08;;;;;;;-0.42;85.97;101248.06;6181497;23;20429;-79
2021/12/22 09:45:32;;;;;;;37.60;22.30;;;;;;;-0.39;85.31;101258.31;6181124;23;20028;-80
2021/12/22 09:53:43;;;;;;;35.28;21.50;;;;;;;-0.30;85.59;101257.13;6060466;23;20018;-80
2021/12/22 09:56:10;;;;;;;36.15;22.92;;;;;;;-0.23;85.81;101257.38;6163141;23;20449;-80
2021/12/22 09:58:39;;;;;;;35.70;23.73;;;;;;;-0.22;85.02;101256.25;6180993;23;20025;-80
2021/12/22 10:01:04;;;;;;;39.00;24.90;;;;;;;-0.14;84.46;101255.34;6180879;23;20082;-80
2021/12/22 10:03:31;;;;;;;32.63;22.48;;;;;;;-0.10;84.54;101256.28;6154301;23;20119;-79
2021/12/22 10:05:57;;;;;;;38.75;23.38;;;;;;;-0.06;83.08;101256.41;6180690;23;20021;-80
2021/12/22 10:08:24;;;;;;;34.90;22.63;;;;;;;-0.08;82.88;101248.53;6154316;23;20503;-80
2021/12/22 10:10:59;;;;;;;35.75;23.50;;;;;;;-0.06;82.97;101251.75;6180754;23;20021;-80
2021/12/22 10:13:28;;;;;;;33.53;21.85;;;;;;;-0.03;83.03;101250.28;6179665;23;20048;-80
2021/12/22 10:15:53;;;;;;;34.03;22.75;;;;;;;-0.01;83.38;101248.81;6131294;23;20096;-80
2021/12/22 10:18:26;;;;;;;32.53;21.55;;;;;;;0.04;81.99;101249.75;6181411;23;20032;-80
2021/12/22 10:20:55;;;;;;;34.72;22.33;;;;;;;0.02;82.31;101241.09;6182028;23;20013;-80
2021/12/22 10:23:25;;;;;;;33.85;23.13;;;;;;;0.10;82.82;101232.00;6155595;23;20013;-80
2021/12/22 10:25:55;;;;;;;35.35;22.85;;;;;;;0.15;82.51;101242.72;6182295;23;20461;-79
2021/12/22 10:28:22;;;;;;;35.83;23.35;;;;;;;0.18;82.19;101231.91;6154712;23;20053;-80
2021/12/22 10:30:50;;;;;;;34.45;22.55;;;;;;;0.21;82.33;101230.44;6182290;23;20084;-79
2021/12/22 10:33:18;;;;;;;33.08;22.17;;;;;;;0.28;81.62;101228.78;6155256;23;20013;-80
2021/12/22 10:35:47;;;;;;;29.70;20.45;;;;;;;0.32;81.47;101237.06;6181769;23;20005;-79
2021/12/22 10:38:14;;;;;;;30.83;20.92;;;;;;;0.28;81.24;101223.31;6181765;23;20040;-80
2021/12/22 10:40:45;;;;;;;29.98;20.95;;;;;;;0.37;81.40;101239.56;6182042;23;20112;-79
2021/12/22 10:43:16;;;;;;;30.40;21.80;;;;;;;0.44;81.73;101237.09;6155140;23;20345;-79
2021/12/22 10:45:45;;;;;;;32.67;21.88;;;;;;;0.48;80.29;101238.00;6181697;23;20390;-80
2021/12/22 10:50:58;;;;;;;32.15;21.92;;;;;;;0.58;78.65;101232.09;6182142;23;20013;-79
2021/12/22 10:53:24;;;;;;;33.05;22.02;;;;;;;0.61;79.62;101225.16;6181700;23;20092;-79
2021/12/22 10:55:52;;;;;;;31.08;21.73;;;;;;;0.59;78.72;101222.75;6181618;23;20040;-79
2021/12/22 10:58:28;;;;;;;32.55;20.80;;;;;;;0.63;79.85;101228.34;6130020;23;20017;-79
2021/12/22 11:01:12;;;;;;;30.42;21.00;;;;;;;0.68;78.49;101226.19;6181790;23;20009;-79
2021/12/22 11:03:46;;;;;;;34.42;22.05;;;;;;;0.73;78.68;101228.66;6155087;23;20068;-79
2021/12/22 11:06:23;;;;;;;32.42;20.65;;;;;;;0.66;77.99;101220.25;6181619;23;20013;-79
2021/12/22 11:09:10;;;;;;;31.25;20.58;;;;;;;0.79;78.90;101227.31;6156074;23;20013;-79
2021/12/22 11:11:38;;;;;;;29.60;19.92;;;;;;;0.84;78.24;101227.09;6181595;23;20020;-79
2021/12/22 11:14:11;;;;;;;32.00;20.75;;;;;;;0.88;77.56;101217.06;6181011;23;20017;-79
2021/12/22 11:16:56;;;;;;;28.55;19.80;;;;;;;0.90;77.28;101222.16;6181411;23;20012;-79
2021/12/22 11:19:22;;;;;;;30.85;19.60;;;;;;;0.87;77.51;101207.28;6181752;23;20017;-80
2021/12/22 11:22:01;;;;;;;29.55;19.42;;;;;;;0.98;77.66;101209.53;6181662;23;20071;-79
2021/12/22 11:24:28;;;;;;;28.30;19.33;;;;;;;1.01;77.08;101217.06;6181250;23;20017;-79
2021/12/22 11:26:53;;;;;;;27.00;18.25;;;;;;;1.07;77.27;101210.19;6155201;23;20449;-79
2021/12/22 11:29:19;;;;;;;26.42;17.60;;;;;;;1.08;77.35;101204.41;6181255;23;20020;-79
2021/12/22 11:31:46;;;;;;;28.80;17.63;;;;;;;1.13;77.24;101193.22;6155354;23;20025;-79
2021/12/22 11:34:14;;;;;;;27.73;18.23;;;;;;;1.14;77.73;101194.81;6154914;23;20496;-79